sensor_id;sensor_type;location;lat;lon;timestamp;P1;durP1;ratioP1;P2;durP2;ratioP2
81231;SDS011;70703;55.652;37.710;2023-08-17T00:00:08;54.17;;;13.90;;
81231;SDS011;70703;55.652;37.710;2023-08-17T00:00:25;53.58;;;13.02;;
81231;SDS011;70703;55.652;37.710;2023-08-17T00:00:36;48.47;;;12.65;;
81231;SDS011;70703;55.652;37.710;2023-08-17T00:00:48;45.03;;;12.95;;
81231;SDS011;70703;55.652;37.710;2023-08-17T00:01:01;45.83;;;13.20;;
81231;SDS011;70703;55.652;37.710;2023-08-17T00:01:12;46.58;;;13.25;;
81231;SDS011;70703;55.652;37.710;2023-08-17T00:01:24;45.90;;;13.75;;
81231;SDS011;70703;55.652;37.710;2023-08-17T00:01:35;48.53;;;13.73;;
81231;SDS011;70703;55.652;37.710;2023-08-17T00:01:46;52.05;;;13.48;;
81231;SDS011;70703;55.652;37.710;2023-08-17T00:01:58;55.22;;;13.63;;
81231;SDS011;70703;55.652;37.710;2023-08-17T00:02:10;52.83;;;13.75;;
81231;SDS011;70703;55.652;37.710;2023-08-17T00:02:21;49.38;;;13.43;;
81231;SDS011;70703;55.652;37.710;2023-08-17T00:02:35;49.67;;;13.23;;
81231;SDS011;70703;55.652;37.710;2023-08-17T00:02:47;54.10;;;13.75;;
81231;SDS011;70703;55.652;37.710;2023-08-17T00:03:00;58.95;;;13.80;;
81231;SDS011;70703;55.652;37.710;2023-08-17T00:03:12;54.33;;;13.90;;
81231;SDS011;70703;55.652;37.710;2023-08-17T00:03:24;55.33;;;13.60;;
81231;SDS011;70703;55.652;37.710;2023-08-17T00:03:35;50.33;;;13.15;;
81231;SDS011;70703;55.652;37.710;2023-08-17T00:03:46;48.78;;;13.15;;
81231;SDS011;70703;55.652;37.710;2023-08-17T00:04:00;45.75;;;13.48;;
81231;SDS011;70703;55.652;37.710;2023-08-17T00:04:12;53.75;;;13.77;;
81231;SDS011;70703;55.652;37.710;2023-08-17T00:04:24;55.03;;;13.25;;
81231;SDS011;70703;55.652;37.710;2023-08-17T00:04:37;51.28;;;13.35;;
81231;SDS011;70703;55.652;37.710;2023-08-17T00:04:48;49.33;;;13.35;;
81231;SDS011;70703;55.652;37.710;2023-08-17T00:05:00;50.88;;;14.00;;
81231;SDS011;70703;55.652;37.710;2023-08-17T00:05:11;53.63;;;14.40;;
81231;SDS011;70703;55.652;37.710;2023-08-17T00:05:23;51.28;;;14.25;;
81231;SDS011;70703;55.652;37.710;2023-08-17T00:05:35;50.55;;;14.15;;
81231;SDS011;70703;55.652;37.710;2023-08-17T00:05:46;51.67;;;14.27;;
81231;SDS011;70703;55.652;37.710;2023-08-17T00:05:59;54.15;;;14.55;;
81231;SDS011;70703;55.652;37.710;2023-08-17T00:06:11;48.13;;;14.40;;
81231;SDS011;70703;55.652;37.710;2023-08-17T00:06:22;47.75;;;14.25;;
81231;SDS011;70703;55.652;37.710;2023-08-17T00:06:34;50.97;;;14.00;;
81231;SDS011;70703;55.652;37.710;2023-08-17T00:06:46;52.92;;;13.43;;
81231;SDS011;70703;55.652;37.710;2023-08-17T00:06:57;51.95;;;13.13;;
81231;SDS011;70703;55.652;37.710;2023-08-17T00:07:09;52.55;;;13.05;;
81231;SDS011;70703;55.652;37.710;2023-08-17T00:07:20;52.22;;;13.73;;
81231;SDS011;70703;55.652;37.710;2023-08-17T00:07:33;56.78;;;14.85;;
81231;SDS011;70703;55.652;37.710;2023-08-17T00:07:45;50.03;;;14.20;;
81231;SDS011;70703;55.652;37.710;2023-08-17T00:07:59;44.88;;;13.55;;
81231;SDS011;70703;55.652;37.710;2023-08-17T00:08:11;51.10;;;13.43;;
81231;SDS011;70703;55.652;37.710;2023-08-17T00:08:24;54.58;;;13.43;;
81231;SDS011;70703;55.652;37.710;2023-08-17T00:08:36;53.97;;;13.60;;
81231;SDS011;70703;55.652;37.710;2023-08-17T00:08:47;48.92;;;13.50;;
81231;SDS011;70703;55.652;37.710;2023-08-17T00:08:58;47.63;;;13.82;;
81231;SDS011;70703;55.652;37.710;2023-08-17T00:09:10;44.75;;;13.50;;
81231;SDS011;70703;55.652;37.710;2023-08-17T00:09:23;43.97;;;13.30;;
81231;SDS011;70703;55.652;37.710;2023-08-17T00:09:36;47.17;;;12.90;;
81231;SDS011;70703;55.652;37.710;2023-08-17T00:09:48;46.90;;;13.35;;
81231;SDS011;70703;55.652;37.710;2023-08-17T00:09:59;42.50;;;13.60;;
81231;SDS011;70703;55.652;37.710;2023-08-17T00:10:11;40.08;;;13.52;;
81231;SDS011;70703;55.652;37.710;2023-08-17T00:10:23;46.22;;;13.32;;
81231;SDS011;70703;55.652;37.710;2023-08-17T00:10:35;48.45;;;13.55;;
81231;SDS011;70703;55.652;37.710;2023-08-17T00:10:49;47.63;;;13.35;;
81231;SDS011;70703;55.652;37.710;2023-08-17T00:11:00;52.45;;;13.25;;
81231;SDS011;70703;55.652;37.710;2023-08-17T00:11:12;52.17;;;13.20;;
81231;SDS011;70703;55.652;37.710;2023-08-17T00:11:24;48.88;;;13.32;;
81231;SDS011;70703;55.652;37.710;2023-08-17T00:11:37;55.65;;;14.70;;
81231;SDS011;70703;55.652;37.710;2023-08-17T00:11:49;56.70;;;14.57;;
81231;SDS011;70703;55.652;37.710;2023-08-17T00:12:01;45.15;;;13.32;;
81231;SDS011;70703;55.652;37.710;2023-08-17T00:12:13;46.90;;;13.23;;
81231;SDS011;70703;55.652;37.710;2023-08-17T00:12:25;48.00;;;13.68;;
81231;SDS011;70703;55.652;37.710;2023-08-17T00:12:36;51.00;;;13.80;;
81231;SDS011;70703;55.652;37.710;2023-08-17T00:12:48;49.55;;;13.77;;
81231;SDS011;70703;55.652;37.710;2023-08-17T00:13:00;50.08;;;13.75;;
81231;SDS011;70703;55.652;37.710;2023-08-17T00:13:13;52.25;;;13.60;;
81231;SDS011;70703;55.652;37.710;2023-08-17T00:13:26;53.85;;;13.27;;
81231;SDS011;70703;55.652;37.710;2023-08-17T00:13:38;55.42;;;13.15;;
81231;SDS011;70703;55.652;37.710;2023-08-17T00:13:50;54.95;;;13.52;;
81231;SDS011;70703;55.652;37.710;2023-08-17T00:14:01;53.58;;;13.65;;
81231;SDS011;70703;55.652;37.710;2023-08-17T00:14:13;48.15;;;13.52;;
81231;SDS011;70703;55.652;37.710;2023-08-17T00:14:25;47.50;;;13.18;;
81231;SDS011;70703;55.652;37.710;2023-08-17T00:14:36;52.28;;;13.38;;
81231;SDS011;70703;55.652;37.710;2023-08-17T00:14:49;57.90;;;13.57;;
81231;SDS011;70703;55.652;37.710;2023-08-17T00:15:01;59.65;;;13.85;;
81231;SDS011;70703;55.652;37.710;2023-08-17T00:15:13;56.55;;;14.32;;
81231;SDS011;70703;55.652;37.710;2023-08-17T00:15:25;52.78;;;14.38;;
81231;SDS011;70703;55.652;37.710;2023-08-17T00:15:37;48.72;;;14.13;;
81231;SDS011;70703;55.652;37.710;2023-08-17T00:15:50;46.22;;;13.90;;
81231;SDS011;70703;55.652;37.710;2023-08-17T00:16:02;50.50;;;13.95;;
81231;SDS011;70703;55.652;37.710;2023-08-17T00:16:15;51.55;;;14.13;;
81231;SDS011;70703;55.652;37.710;2023-08-17T00:16:27;49.47;;;14.35;;
81231;SDS011;70703;55.652;37.710;2023-08-17T00:16:39;46.60;;;14.15;;
81231;SDS011;70703;55.652;37.710;2023-08-17T00:16:51;47.83;;;13.88;;
81231;SDS011;70703;55.652;37.710;2023-08-17T00:17:03;53.35;;;13.88;;
81231;SDS011;70703;55.652;37.710;2023-08-17T00:17:15;54.25;;;13.43;;
81231;SDS011;70703;55.652;37.710;2023-08-17T00:17:27;48.30;;;13.55;;
81231;SDS011;70703;55.652;37.710;2023-08-17T00:17:40;51.35;;;13.52;;
81231;SDS011;70703;55.652;37.710;2023-08-17T00:17:51;55.38;;;13.80;;
81231;SDS011;70703;55.652;37.710;2023-08-17T00:18:03;59.53;;;14.02;;
81231;SDS011;70703;55.652;37.710;2023-08-17T00:18:15;56.85;;;14.20;;
81231;SDS011;70703;55.652;37.710;2023-08-17T00:18:28;51.47;;;13.70;;
81231;SDS011;70703;55.652;37.710;2023-08-17T00:18:40;52.70;;;13.57;;
81231;SDS011;70703;55.652;37.710;2023-08-17T00:18:52;55.33;;;13.73;;
81231;SDS011;70703;55.652;37.710;2023-08-17T00:19:05;47.83;;;13.32;;
81231;SDS011;70703;55.652;37.710;2023-08-17T00:19:17;43.65;;;13.27;;
81231;SDS011;70703;55.652;37.710;2023-08-17T00:19:29;50.10;;;13.65;;
81231;SDS011;70703;55.652;37.710;2023-08-17T00:19:42;46.95;;;13.25;;
81231;SDS011;70703;55.652;37.710;2023-08-17T00:19:54;38.58;;;13.48;;
81231;SDS011;70703;55.652;37.710;2023-08-17T00:20:07;45.88;;;13.57;;
81231;SDS011;70703;55.652;37.710;2023-08-17T00:20:22;50.58;;;13.23;;
81231;SDS011;70703;55.652;37.710;2023-08-17T00:20:34;50.50;;;13.32;;
81231;SDS011;70703;55.652;37.710;2023-08-17T00:20:46;53.00;;;13.23;;
81231;SDS011;70703;55.652;37.710;2023-08-17T00:20:59;50.50;;;13.63;;
81231;SDS011;70703;55.652;37.710;2023-08-17T00:21:11;49.65;;;13.95;;
81231;SDS011;70703;55.652;37.710;2023-08-17T00:21:22;48.05;;;13.85;;
81231;SDS011;70703;55.652;37.710;2023-08-17T00:21:34;55.70;;;13.48;;
81231;SDS011;70703;55.652;37.710;2023-08-17T00:21:48;54.97;;;13.50;;
81231;SDS011;70703;55.652;37.710;2023-08-17T00:22:00;52.38;;;13.52;;
81231;SDS011;70703;55.652;37.710;2023-08-17T00:22:11;55.35;;;13.90;;
81231;SDS011;70703;55.652;37.710;2023-08-17T00:22:23;60.53;;;13.75;;
81231;SDS011;70703;55.652;37.710;2023-08-17T00:22:35;55.97;;;13.98;;
81231;SDS011;70703;55.652;37.710;2023-08-17T00:22:47;47.33;;;13.45;;
81231;SDS011;70703;55.652;37.710;2023-08-17T00:22:58;51.42;;;13.88;;
81231;SDS011;70703;55.652;37.710;2023-08-17T00:23:12;48.45;;;13.45;;
81231;SDS011;70703;55.652;37.710;2023-08-17T00:23:24;47.00;;;13.45;;
81231;SDS011;70703;55.652;37.710;2023-08-17T00:23:36;45.35;;;13.93;;
81231;SDS011;70703;55.652;37.710;2023-08-17T00:23:47;49.67;;;13.93;;
81231;SDS011;70703;55.652;37.710;2023-08-17T00:24:00;47.45;;;13.40;;
81231;SDS011;70703;55.652;37.710;2023-08-17T00:24:12;49.28;;;13.52;;
81231;SDS011;70703;55.652;37.710;2023-08-17T00:24:24;51.83;;;13.30;;
81231;SDS011;70703;55.652;37.710;2023-08-17T00:24:36;53.47;;;13.48;;
81231;SDS011;70703;55.652;37.710;2023-08-17T00:24:49;57.67;;;14.00;;
81231;SDS011;70703;55.652;37.710;2023-08-17T00:25:00;51.38;;;14.05;;
81231;SDS011;70703;55.652;37.710;2023-08-17T00:25:14;48.58;;;13.70;;
81231;SDS011;70703;55.652;37.710;2023-08-17T00:25:26;47.05;;;13.73;;
81231;SDS011;70703;55.652;37.710;2023-08-17T00:25:38;51.85;;;13.98;;
81231;SDS011;70703;55.652;37.710;2023-08-17T00:25:50;48.15;;;13.57;;
81231;SDS011;70703;55.652;37.710;2023-08-17T00:26:02;46.53;;;13.25;;
81231;SDS011;70703;55.652;37.710;2023-08-17T00:26:14;43.45;;;13.90;;
81231;SDS011;70703;55.652;37.710;2023-08-17T00:26:25;50.55;;;14.10;;
81231;SDS011;70703;55.652;37.710;2023-08-17T00:26:38;44.33;;;14.02;;
81231;SDS011;70703;55.652;37.710;2023-08-17T00:26:49;44.55;;;13.75;;
81231;SDS011;70703;55.652;37.710;2023-08-17T00:27:01;44.92;;;13.73;;
81231;SDS011;70703;55.652;37.710;2023-08-17T00:27:14;43.85;;;13.18;;
81231;SDS011;70703;55.652;37.710;2023-08-17T00:27:27;45.08;;;13.48;;
81231;SDS011;70703;55.652;37.710;2023-08-17T00:27:39;46.40;;;13.45;;
81231;SDS011;70703;55.652;37.710;2023-08-17T00:27:50;45.55;;;13.13;;
81231;SDS011;70703;55.652;37.710;2023-08-17T00:28:04;41.05;;;13.32;;
81231;SDS011;70703;55.652;37.710;2023-08-17T00:28:16;40.80;;;13.45;;
81231;SDS011;70703;55.652;37.710;2023-08-17T00:28:33;49.53;;;14.35;;
81231;SDS011;70703;55.652;37.710;2023-08-17T00:29:02;37.70;;;13.23;;
81231;SDS011;70703;55.652;37.710;2023-08-17T00:29:18;46.72;;;13.38;;
81231;SDS011;70703;55.652;37.710;2023-08-17T00:29:33;56.17;;;13.68;;
81231;SDS011;70703;55.652;37.710;2023-08-17T00:29:47;55.92;;;13.95;;
81231;SDS011;70703;55.652;37.710;2023-08-17T00:29:59;50.35;;;13.98;;
81231;SDS011;70703;55.652;37.710;2023-08-17T00:30:10;49.28;;;13.70;;
81231;SDS011;70703;55.652;37.710;2023-08-17T00:30:25;54.25;;;13.75;;
81231;SDS011;70703;55.652;37.710;2023-08-17T00:30:36;57.38;;;13.45;;
81231;SDS011;70703;55.652;37.710;2023-08-17T00:30:48;55.60;;;13.70;;
81231;SDS011;70703;55.652;37.710;2023-08-17T00:30:59;54.53;;;13.82;;
81231;SDS011;70703;55.652;37.710;2023-08-17T00:31:11;56.70;;;14.07;;
81231;SDS011;70703;55.652;37.710;2023-08-17T00:31:23;53.83;;;13.70;;
81231;SDS011;70703;55.652;37.710;2023-08-17T00:31:34;47.33;;;13.50;;
81231;SDS011;70703;55.652;37.710;2023-08-17T00:31:47;45.45;;;13.68;;
81231;SDS011;70703;55.652;37.710;2023-08-17T00:32:00;47.35;;;13.77;;
81231;SDS011;70703;55.652;37.710;2023-08-17T00:32:12;47.05;;;13.50;;
81231;SDS011;70703;55.652;37.710;2023-08-17T00:32:24;45.15;;;13.35;;
81231;SDS011;70703;55.652;37.710;2023-08-17T00:32:35;46.00;;;13.10;;
81231;SDS011;70703;55.652;37.710;2023-08-17T00:32:47;45.22;;;13.35;;
81231;SDS011;70703;55.652;37.710;2023-08-17T00:32:58;46.60;;;13.20;;
81231;SDS011;70703;55.652;37.710;2023-08-17T00:33:10;45.25;;;13.32;;
81231;SDS011;70703;55.652;37.710;2023-08-17T00:33:22;47.70;;;13.18;;
81231;SDS011;70703;55.652;37.710;2023-08-17T00:33:35;48.78;;;13.38;;
81231;SDS011;70703;55.652;37.710;2023-08-17T00:33:47;47.00;;;13.57;;
81231;SDS011;70703;55.652;37.710;2023-08-17T00:33:59;49.00;;;13.23;;
81231;SDS011;70703;55.652;37.710;2023-08-17T00:34:12;51.05;;;13.23;;
81231;SDS011;70703;55.652;37.710;2023-08-17T00:34:23;48.67;;;13.57;;
81231;SDS011;70703;55.652;37.710;2023-08-17T00:34:36;44.20;;;13.40;;
81231;SDS011;70703;55.652;37.710;2023-08-17T00:34:48;48.55;;;13.30;;
81231;SDS011;70703;55.652;37.710;2023-08-17T00:35:01;49.70;;;13.25;;
81231;SDS011;70703;55.652;37.710;2023-08-17T00:35:13;41.28;;;13.18;;
81231;SDS011;70703;55.652;37.710;2023-08-17T00:35:25;45.45;;;13.43;;
81231;SDS011;70703;55.652;37.710;2023-08-17T00:35:37;47.97;;;13.52;;
81231;SDS011;70703;55.652;37.710;2023-08-17T00:35:50;49.28;;;14.10;;
81231;SDS011;70703;55.652;37.710;2023-08-17T00:36:02;46.45;;;13.77;;
81231;SDS011;70703;55.652;37.710;2023-08-17T00:36:16;46.33;;;13.43;;
81231;SDS011;70703;55.652;37.710;2023-08-17T00:36:28;46.85;;;13.20;;
81231;SDS011;70703;55.652;37.710;2023-08-17T00:36:39;46.72;;;13.85;;
81231;SDS011;70703;55.652;37.710;2023-08-17T00:36:52;49.15;;;13.95;;
81231;SDS011;70703;55.652;37.710;2023-08-17T00:37:04;51.63;;;13.70;;
81231;SDS011;70703;55.652;37.710;2023-08-17T00:37:16;49.15;;;13.52;;
81231;SDS011;70703;55.652;37.710;2023-08-17T00:37:27;45.28;;;13.65;;
81231;SDS011;70703;55.652;37.710;2023-08-17T00:37:39;47.75;;;13.85;;
81231;SDS011;70703;55.652;37.710;2023-08-17T00:37:51;46.30;;;13.52;;
81231;SDS011;70703;55.652;37.710;2023-08-17T00:38:04;44.33;;;13.57;;
81231;SDS011;70703;55.652;37.710;2023-08-17T00:38:16;41.70;;;13.75;;
81231;SDS011;70703;55.652;37.710;2023-08-17T00:38:27;41.65;;;13.90;;
81231;SDS011;70703;55.652;37.710;2023-08-17T00:38:38;45.33;;;13.93;;
81231;SDS011;70703;55.652;37.710;2023-08-17T00:38:50;49.05;;;14.20;;
81231;SDS011;70703;55.652;37.710;2023-08-17T00:39:02;55.65;;;13.75;;
81231;SDS011;70703;55.652;37.710;2023-08-17T00:39:15;50.95;;;13.50;;
81231;SDS011;70703;55.652;37.710;2023-08-17T00:39:27;48.20;;;13.02;;
81231;SDS011;70703;55.652;37.710;2023-08-17T00:39:38;47.65;;;13.07;;
81231;SDS011;70703;55.652;37.710;2023-08-17T00:39:50;49.63;;;13.27;;
81231;SDS011;70703;55.652;37.710;2023-08-17T00:40:02;49.85;;;13.25;;
81231;SDS011;70703;55.652;37.710;2023-08-17T00:40:17;47.72;;;12.82;;
81231;SDS011;70703;55.652;37.710;2023-08-17T00:40:28;49.65;;;12.77;;
81231;SDS011;70703;55.652;37.710;2023-08-17T00:40:40;55.08;;;13.43;;
81231;SDS011;70703;55.652;37.710;2023-08-17T00:40:51;51.45;;;13.55;;
81231;SDS011;70703;55.652;37.710;2023-08-17T00:41:02;51.60;;;13.95;;
81231;SDS011;70703;55.652;37.710;2023-08-17T00:41:14;44.78;;;13.50;;
81231;SDS011;70703;55.652;37.710;2023-08-17T00:41:26;44.88;;;13.55;;
81231;SDS011;70703;55.652;37.710;2023-08-17T00:41:39;45.05;;;13.45;;
81231;SDS011;70703;55.652;37.710;2023-08-17T00:41:51;43.10;;;13.10;;
81231;SDS011;70703;55.652;37.710;2023-08-17T00:42:04;45.28;;;12.77;;
81231;SDS011;70703;55.652;37.710;2023-08-17T00:42:16;46.40;;;12.50;;
81231;SDS011;70703;55.652;37.710;2023-08-17T00:42:27;47.15;;;12.77;;
81231;SDS011;70703;55.652;37.710;2023-08-17T00:42:39;47.78;;;13.48;;
81231;SDS011;70703;55.652;37.710;2023-08-17T00:42:51;42.92;;;13.68;;
81231;SDS011;70703;55.652;37.710;2023-08-17T00:43:04;47.78;;;13.85;;
81231;SDS011;70703;55.652;37.710;2023-08-17T00:43:16;43.13;;;13.60;;
81231;SDS011;70703;55.652;37.710;2023-08-17T00:43:27;43.90;;;13.20;;
81231;SDS011;70703;55.652;37.710;2023-08-17T00:43:40;47.42;;;12.93;;
81231;SDS011;70703;55.652;37.710;2023-08-17T00:43:52;46.17;;;13.15;;
81231;SDS011;70703;55.652;37.710;2023-08-17T00:44:04;46.42;;;13.80;;
81231;SDS011;70703;55.652;37.710;2023-08-17T00:44:17;44.50;;;13.75;;
81231;SDS011;70703;55.652;37.710;2023-08-17T00:44:32;48.25;;;13.27;;
81231;SDS011;70703;55.652;37.710;2023-08-17T00:44:44;46.80;;;12.98;;
81231;SDS011;70703;55.652;37.710;2023-08-17T00:44:56;41.60;;;12.98;;
81231;SDS011;70703;55.652;37.710;2023-08-17T00:45:07;42.65;;;13.25;;
81231;SDS011;70703;55.652;37.710;2023-08-17T00:45:21;43.53;;;13.38;;
81231;SDS011;70703;55.652;37.710;2023-08-17T00:45:35;41.78;;;12.73;;
81231;SDS011;70703;55.652;37.710;2023-08-17T00:45:47;43.67;;;13.07;;
81231;SDS011;70703;55.652;37.710;2023-08-17T00:45:59;47.75;;;13.43;;
81231;SDS011;70703;55.652;37.710;2023-08-17T00:46:10;45.70;;;13.32;;
81231;SDS011;70703;55.652;37.710;2023-08-17T00:46:23;43.38;;;13.25;;
81231;SDS011;70703;55.652;37.710;2023-08-17T00:46:37;49.00;;;13.32;;
81231;SDS011;70703;55.652;37.710;2023-08-17T00:46:49;51.70;;;13.55;;
81231;SDS011;70703;55.652;37.710;2023-08-17T00:47:01;47.47;;;13.15;;
81231;SDS011;70703;55.652;37.710;2023-08-17T00:47:14;48.75;;;13.23;;
81231;SDS011;70703;55.652;37.710;2023-08-17T00:47:25;43.55;;;12.93;;
81231;SDS011;70703;55.652;37.710;2023-08-17T00:47:37;41.88;;;13.00;;
81231;SDS011;70703;55.652;37.710;2023-08-17T00:47:49;42.75;;;13.43;;
81231;SDS011;70703;55.652;37.710;2023-08-17T00:48:01;45.13;;;13.55;;
81231;SDS011;70703;55.652;37.710;2023-08-17T00:48:14;45.10;;;13.32;;
81231;SDS011;70703;55.652;37.710;2023-08-17T00:48:26;41.42;;;13.05;;
81231;SDS011;70703;55.652;37.710;2023-08-17T00:48:39;38.45;;;12.70;;
81231;SDS011;70703;55.652;37.710;2023-08-17T00:48:52;41.13;;;13.02;;
81231;SDS011;70703;55.652;37.710;2023-08-17T00:49:06;41.67;;;13.10;;
81231;SDS011;70703;55.652;37.710;2023-08-17T00:49:19;43.67;;;13.30;;
81231;SDS011;70703;55.652;37.710;2023-08-17T00:49:31;49.35;;;13.93;;
81231;SDS011;70703;55.652;37.710;2023-08-17T00:49:44;48.85;;;13.93;;
81231;SDS011;70703;55.652;37.710;2023-08-17T00:49:56;47.55;;;13.82;;
81231;SDS011;70703;55.652;37.710;2023-08-17T00:50:10;45.88;;;13.82;;
81231;SDS011;70703;55.652;37.710;2023-08-17T00:50:22;47.42;;;14.07;;
81231;SDS011;70703;55.652;37.710;2023-08-17T00:50:36;44.10;;;13.85;;
81231;SDS011;70703;55.652;37.710;2023-08-17T00:50:49;47.92;;;14.25;;
81231;SDS011;70703;55.652;37.710;2023-08-17T00:51:04;51.72;;;14.27;;
81231;SDS011;70703;55.652;37.710;2023-08-17T00:51:16;51.20;;;13.75;;
81231;SDS011;70703;55.652;37.710;2023-08-17T00:51:30;51.17;;;13.75;;
81231;SDS011;70703;55.652;37.710;2023-08-17T00:51:42;52.72;;;13.98;;
81231;SDS011;70703;55.652;37.710;2023-08-17T00:51:54;50.00;;;13.40;;
81231;SDS011;70703;55.652;37.710;2023-08-17T00:52:05;50.60;;;13.50;;
81231;SDS011;70703;55.652;37.710;2023-08-17T00:52:19;50.67;;;13.90;;
81231;SDS011;70703;55.652;37.710;2023-08-17T00:52:30;50.88;;;14.15;;
81231;SDS011;70703;55.652;37.710;2023-08-17T00:52:44;48.42;;;13.82;;
81231;SDS011;70703;55.652;37.710;2023-08-17T00:52:56;47.58;;;13.90;;
81231;SDS011;70703;55.652;37.710;2023-08-17T00:53:11;43.70;;;13.70;;
81231;SDS011;70703;55.652;37.710;2023-08-17T00:53:23;41.97;;;13.30;;
81231;SDS011;70703;55.652;37.710;2023-08-17T00:53:37;39.92;;;13.20;;
81231;SDS011;70703;55.652;37.710;2023-08-17T00:53:48;44.10;;;13.25;;
81231;SDS011;70703;55.652;37.710;2023-08-17T00:54:00;48.92;;;13.18;;
81231;SDS011;70703;55.652;37.710;2023-08-17T00:54:14;50.47;;;13.48;;
81231;SDS011;70703;55.652;37.710;2023-08-17T00:54:30;50.25;;;14.10;;
81231;SDS011;70703;55.652;37.710;2023-08-17T00:54:43;49.70;;;14.07;;
81231;SDS011;70703;55.652;37.710;2023-08-17T00:54:56;48.20;;;13.93;;
81231;SDS011;70703;55.652;37.710;2023-08-17T00:55:08;49.90;;;14.18;;
81231;SDS011;70703;55.652;37.710;2023-08-17T00:55:22;55.72;;;14.57;;
81231;SDS011;70703;55.652;37.710;2023-08-17T00:55:33;54.13;;;14.80;;
81231;SDS011;70703;55.652;37.710;2023-08-17T00:55:45;50.35;;;14.93;;
81231;SDS011;70703;55.652;37.710;2023-08-17T00:55:57;46.97;;;13.80;;
81231;SDS011;70703;55.652;37.710;2023-08-17T00:56:09;49.53;;;13.88;;
81231;SDS011;70703;55.652;37.710;2023-08-17T00:56:22;47.90;;;13.57;;
81231;SDS011;70703;55.652;37.710;2023-08-17T00:56:34;50.30;;;14.00;;
81231;SDS011;70703;55.652;37.710;2023-08-17T00:56:46;48.28;;;13.90;;
81231;SDS011;70703;55.652;37.710;2023-08-17T00:56:58;50.75;;;13.70;;
81231;SDS011;70703;55.652;37.710;2023-08-17T00:57:12;49.67;;;13.70;;
81231;SDS011;70703;55.652;37.710;2023-08-17T00:57:24;53.28;;;14.48;;
81231;SDS011;70703;55.652;37.710;2023-08-17T00:57:35;57.15;;;14.68;;
81231;SDS011;70703;55.652;37.710;2023-08-17T00:57:48;56.53;;;14.65;;
81231;SDS011;70703;55.652;37.710;2023-08-17T00:58:00;50.15;;;14.07;;
81231;SDS011;70703;55.652;37.710;2023-08-17T00:58:11;41.85;;;13.85;;
81231;SDS011;70703;55.652;37.710;2023-08-17T00:58:26;42.03;;;13.82;;
81231;SDS011;70703;55.652;37.710;2023-08-17T00:58:39;46.40;;;13.70;;
81231;SDS011;70703;55.652;37.710;2023-08-17T00:58:52;47.90;;;13.65;;
81231;SDS011;70703;55.652;37.710;2023-08-17T00:59:04;47.28;;;14.07;;
81231;SDS011;70703;55.652;37.710;2023-08-17T00:59:16;43.22;;;14.13;;
81231;SDS011;70703;55.652;37.710;2023-08-17T00:59:28;45.10;;;13.98;;
81231;SDS011;70703;55.652;37.710;2023-08-17T00:59:39;44.08;;;13.25;;
81231;SDS011;70703;55.652;37.710;2023-08-17T00:59:51;45.75;;;13.73;;
81231;SDS011;70703;55.652;37.710;2023-08-17T01:00:04;45.85;;;13.77;;
81231;SDS011;70703;55.652;37.710;2023-08-17T01:00:26;46.60;;;13.75;;
81231;SDS011;70703;55.652;37.710;2023-08-17T01:00:43;46.72;;;13.48;;
81231;SDS011;70703;55.652;37.710;2023-08-17T01:00:56;45.67;;;13.40;;
81231;SDS011;70703;55.652;37.710;2023-08-17T01:01:12;44.50;;;13.85;;
81231;SDS011;70703;55.652;37.710;2023-08-17T01:01:28;44.80;;;13.65;;
81231;SDS011;70703;55.652;37.710;2023-08-17T01:01:43;45.28;;;13.82;;
81231;SDS011;70703;55.652;37.710;2023-08-17T01:01:57;42.05;;;13.57;;
81231;SDS011;70703;55.652;37.710;2023-08-17T01:02:13;41.17;;;13.38;;
81231;SDS011;70703;55.652;37.710;2023-08-17T01:02:28;45.83;;;13.57;;
81231;SDS011;70703;55.652;37.710;2023-08-17T01:02:40;47.08;;;13.80;;
81231;SDS011;70703;55.652;37.710;2023-08-17T01:02:53;45.75;;;14.43;;
81231;SDS011;70703;55.652;37.710;2023-08-17T01:03:05;47.58;;;14.32;;
81231;SDS011;70703;55.652;37.710;2023-08-17T01:03:16;51.08;;;13.98;;
81231;SDS011;70703;55.652;37.710;2023-08-17T01:03:29;51.60;;;13.98;;
81231;SDS011;70703;55.652;37.710;2023-08-17T01:03:41;48.65;;;14.00;;
81231;SDS011;70703;55.652;37.710;2023-08-17T01:03:54;51.72;;;14.52;;
81231;SDS011;70703;55.652;37.710;2023-08-17T01:04:07;47.53;;;14.27;;
81231;SDS011;70703;55.652;37.710;2023-08-17T01:04:20;45.92;;;14.25;;
81231;SDS011;70703;55.652;37.710;2023-08-17T01:04:32;47.75;;;14.07;;
81231;SDS011;70703;55.652;37.710;2023-08-17T01:04:44;48.35;;;13.90;;
81231;SDS011;70703;55.652;37.710;2023-08-17T01:04:55;45.95;;;13.60;;
81231;SDS011;70703;55.652;37.710;2023-08-17T01:05:08;42.95;;;13.85;;
81231;SDS011;70703;55.652;37.710;2023-08-17T01:05:19;48.38;;;14.40;;
81231;SDS011;70703;55.652;37.710;2023-08-17T01:05:31;46.38;;;14.35;;
81231;SDS011;70703;55.652;37.710;2023-08-17T01:05:43;48.25;;;14.50;;
81231;SDS011;70703;55.652;37.710;2023-08-17T01:05:55;47.90;;;14.32;;
81231;SDS011;70703;55.652;37.710;2023-08-17T01:06:08;49.65;;;13.98;;
81231;SDS011;70703;55.652;37.710;2023-08-17T01:06:20;50.88;;;13.85;;
81231;SDS011;70703;55.652;37.710;2023-08-17T01:06:32;48.95;;;14.02;;
81231;SDS011;70703;55.652;37.710;2023-08-17T01:06:43;45.20;;;14.07;;
81231;SDS011;70703;55.652;37.710;2023-08-17T01:06:55;44.83;;;14.25;;
81231;SDS011;70703;55.652;37.710;2023-08-17T01:07:07;47.35;;;14.20;;
81231;SDS011;70703;55.652;37.710;2023-08-17T01:07:18;48.03;;;14.05;;
81231;SDS011;70703;55.652;37.710;2023-08-17T01:07:30;54.40;;;14.10;;
81231;SDS011;70703;55.652;37.710;2023-08-17T01:07:41;55.15;;;14.18;;
81231;SDS011;70703;55.652;37.710;2023-08-17T01:07:53;54.20;;;14.40;;
81231;SDS011;70703;55.652;37.710;2023-08-17T01:08:06;47.58;;;14.48;;
81231;SDS011;70703;55.652;37.710;2023-08-17T01:08:19;45.00;;;14.40;;
81231;SDS011;70703;55.652;37.710;2023-08-17T01:08:30;47.83;;;13.95;;
81231;SDS011;70703;55.652;37.710;2023-08-17T01:08:41;48.63;;;13.57;;
81231;SDS011;70703;55.652;37.710;2023-08-17T01:08:56;48.55;;;14.30;;
81231;SDS011;70703;55.652;37.710;2023-08-17T01:09:08;52.05;;;14.20;;
81231;SDS011;70703;55.652;37.710;2023-08-17T01:09:20;54.40;;;13.82;;
81231;SDS011;70703;55.652;37.710;2023-08-17T01:09:31;49.50;;;13.32;;
81231;SDS011;70703;55.652;37.710;2023-08-17T01:09:43;46.75;;;13.55;;
81231;SDS011;70703;55.652;37.710;2023-08-17T01:09:55;50.60;;;14.10;;
81231;SDS011;70703;55.652;37.710;2023-08-17T01:10:06;50.78;;;14.15;;
81231;SDS011;70703;55.652;37.710;2023-08-17T01:10:19;46.42;;;13.82;;
81231;SDS011;70703;55.652;37.710;2023-08-17T01:10:33;46.47;;;13.80;;
81231;SDS011;70703;55.652;37.710;2023-08-17T01:10:52;44.88;;;13.93;;
81231;SDS011;70703;55.652;37.710;2023-08-17T01:11:13;45.20;;;14.05;;
81231;SDS011;70703;55.652;37.710;2023-08-17T01:11:32;44.72;;;14.25;;
81231;SDS011;70703;55.652;37.710;2023-08-17T01:11:49;46.22;;;14.30;;
81231;SDS011;70703;55.652;37.710;2023-08-17T01:12:23;49.67;;;13.65;;